sensor_id;sensor_type;location;lat;lon;timestamp;pressure;altitude;pressure_sealevel;temperature;humidity
55801;BME280;41730;51.960;20.158;2022-12-18T00:00:29;101593.11;;;-0.30;74.77
55801;BME280;41730;51.960;20.158;2022-12-18T00:03:01;101591.60;;;-0.33;75.22
55801;BME280;41730;51.960;20.158;2022-12-18T00:05:33;101591.72;;;-0.40;75.39
55801;BME280;41730;51.960;20.158;2022-12-18T00:08:05;101593.73;;;-0.37;75.22
55801;BME280;41730;51.960;20.158;2022-12-18T00:10:38;101599.02;;;-0.34;75.21
55801;BME280;41730;51.960;20.158;2022-12-18T00:13:09;101597.89;;;-0.38;75.06
55801;BME280;41730;51.960;20.158;2022-12-18T00:15:41;101600.63;;;-0.37;75.23
55801;BME280;41730;51.960;20.158;2022-12-18T00:18:13;101600.88;;;-0.31;75.19
55801;BME280;41730;51.960;20.158;2022-12-18T00:20:49;101604.73;;;-0.35;75.03
55801;BME280;41730;51.960;20.158;2022-12-18T00:23:20;101602.00;;;-0.38;75.33
55801;BME280;41730;51.960;20.158;2022-12-18T00:25:52;101604.56;;;-0.46;75.61
55801;BME280;41730;51.960;20.158;2022-12-18T00:28:23;101602.42;;;-0.42;75.51
55801;BME280;41730;51.960;20.158;2022-12-18T00:31:02;101604.59;;;-0.49;75.67
55801;BME280;41730;51.960;20.158;2022-12-18T00:33:35;101611.36;;;-0.52;75.51
55801;BME280;41730;51.960;20.158;2022-12-18T00:36:10;101618.13;;;-0.56;76.05
55801;BME280;41730;51.960;20.158;2022-12-18T00:38:42;101623.14;;;-0.56;76.10
55801;BME280;41730;51.960;20.158;2022-12-18T00:41:16;101626.58;;;-0.44;75.71
55801;BME280;41730;51.960;20.158;2022-12-18T00:44:09;101627.99;;;-0.35;75.44
55801;BME280;41730;51.960;20.158;2022-12-18T00:46:42;101630.48;;;-0.29;75.04
55801;BME280;41730;51.960;20.158;2022-12-18T00:49:15;101635.16;;;-0.19;74.94
55801;BME280;41730;51.960;20.158;2022-12-18T00:51:48;101640.23;;;-0.12;74.58
55801;BME280;41730;51.960;20.158;2022-12-18T00:54:20;101646.27;;;-0.13;74.76
55801;BME280;41730;51.960;20.158;2022-12-18T00:56:52;101652.22;;;-0.07;74.35
55801;BME280;41730;51.960;20.158;2022-12-18T00:59:25;101659.05;;;-0.03;74.24
55801;BME280;41730;51.960;20.158;2022-12-18T01:01:56;101664.67;;;0.01;74.34
55801;BME280;41730;51.960;20.158;2022-12-18T01:04:28;101667.30;;;-0.12;74.45
55801;BME280;41730;51.960;20.158;2022-12-18T01:07:02;101667.66;;;-0.25;74.92
55801;BME280;41730;51.960;20.158;2022-12-18T01:09:33;101669.36;;;-0.23;74.98
55801;BME280;41730;51.960;20.158;2022-12-18T01:12:07;101668.69;;;-0.13;74.42
55801;BME280;41730;51.960;20.158;2022-12-18T01:14:39;101672.63;;;-0.23;74.65
55801;BME280;41730;51.960;20.158;2022-12-18T01:17:10;101675.15;;;-0.31;75.23
55801;BME280;41730;51.960;20.158;2022-12-18T01:19:42;101678.02;;;-0.27;75.08
55801;BME280;41730;51.960;20.158;2022-12-18T01:22:14;101682.55;;;-0.31;75.26
55801;BME280;41730;51.960;20.158;2022-12-18T01:24:46;101691.98;;;-0.38;75.51
55801;BME280;41730;51.960;20.158;2022-12-18T01:27:17;101695.46;;;-0.55;75.82
55801;BME280;41730;51.960;20.158;2022-12-18T01:29:50;101696.55;;;-0.60;76.03
55801;BME280;41730;51.960;20.158;2022-12-18T01:32:22;101697.14;;;-0.51;75.90
55801;BME280;41730;51.960;20.158;2022-12-18T01:34:54;101700.47;;;-0.42;75.37
55801;BME280;41730;51.960;20.158;2022-12-18T01:37:25;101691.81;;;-0.39;75.38
55801;BME280;41730;51.960;20.158;2022-12-18T01:39:57;101690.91;;;-0.24;74.92
55801;BME280;41730;51.960;20.158;2022-12-18T01:42:29;101696.15;;;-0.30;75.01
55801;BME280;41730;51.960;20.158;2022-12-18T01:45:08;101702.79;;;-0.36;75.21
55801;BME280;41730;51.960;20.158;2022-12-18T01:47:54;101707.05;;;-0.32;75.42
55801;BME280;41730;51.960;20.158;2022-12-18T01:50:30;101706.74;;;-0.22;75.11
55801;BME280;41730;51.960;20.158;2022-12-18T01:53:05;101703.44;;;-0.08;74.45
55801;BME280;41730;51.960;20.158;2022-12-18T01:55:40;101701.95;;;-0.12;74.60
55801;BME280;41730;51.960;20.158;2022-12-18T01:58:14;101709.50;;;-0.22;74.90
55801;BME280;41730;51.960;20.158;2022-12-18T02:00:47;101720.98;;;-0.18;74.98
55801;BME280;41730;51.960;20.158;2022-12-18T02:03:18;101723.86;;;-0.26;74.81
55801;BME280;41730;51.960;20.158;2022-12-18T02:05:55;101728.98;;;-0.23;74.99
55801;BME280;41730;51.960;20.158;2022-12-18T02:08:32;101732.73;;;-0.19;75.05
55801;BME280;41730;51.960;20.158;2022-12-18T02:11:09;101735.45;;;-0.29;75.32
55801;BME280;41730;51.960;20.158;2022-12-18T02:13:49;101734.08;;;-0.17;75.07
55801;BME280;41730;51.960;20.158;2022-12-18T02:16:27;101735.66;;;-0.07;74.70
55801;BME280;41730;51.960;20.158;2022-12-18T02:19:04;101742.41;;;-0.08;74.51
55801;BME280;41730;51.960;20.158;2022-12-18T02:21:45;101747.21;;;-0.07;74.58
55801;BME280;41730;51.960;20.158;2022-12-18T02:24:29;101746.64;;;-0.15;74.87
55801;BME280;41730;51.960;20.158;2022-12-18T02:27:06;101755.27;;;-0.16;74.83
55801;BME280;41730;51.960;20.158;2022-12-18T02:29:43;101762.67;;;-0.14;75.06
55801;BME280;41730;51.960;20.158;2022-12-18T02:32:28;101767.51;;;-0.03;74.66
55801;BME280;41730;51.960;20.158;2022-12-18T02:35:04;101770.39;;;-0.12;74.65
55801;BME280;41730;51.960;20.158;2022-12-18T02:37:37;101770.01;;;-0.23;75.00
55801;BME280;41730;51.960;20.158;2022-12-18T02:40:11;101769.40;;;-0.16;74.72
55801;BME280;41730;51.960;20.158;2022-12-18T02:42:43;101774.34;;;-0.10;74.67
55801;BME280;41730;51.960;20.158;2022-12-18T02:45:15;101781.70;;;-0.21;74.91
55801;BME280;41730;51.960;20.158;2022-12-18T02:47:48;101784.70;;;-0.26;75.17
55801;BME280;41730;51.960;20.158;2022-12-18T02:50:26;101794.67;;;-0.39;75.65
55801;BME280;41730;51.960;20.158;2022-12-18T02:53:06;101796.82;;;-0.45;75.86
55801;BME280;41730;51.960;20.158;2022-12-18T02:55:51;101799.18;;;-0.42;75.65
55801;BME280;41730;51.960;20.158;2022-12-18T02:58:32;101803.74;;;-0.32;75.26
55801;BME280;41730;51.960;20.158;2022-12-18T03:01:12;101806.73;;;-0.25;75.28
55801;BME280;41730;51.960;20.158;2022-12-18T03:03:50;101806.61;;;-0.27;75.10
55801;BME280;41730;51.960;20.158;2022-12-18T03:06:26;101809.60;;;-0.32;75.36
55801;BME280;41730;51.960;20.158;2022-12-18T03:09:04;101810.88;;;-0.38;75.45
55801;BME280;41730;51.960;20.158;2022-12-18T03:11:46;101812.27;;;-0.39;75.55
55801;BME280;41730;51.960;20.158;2022-12-18T03:14:39;101822.59;;;-0.37;75.28
55801;BME280;41730;51.960;20.158;2022-12-18T03:17:15;101820.77;;;-0.30;75.29
55801;BME280;41730;51.960;20.158;2022-12-18T03:19:50;101819.63;;;-0.35;75.42
55801;BME280;41730;51.960;20.158;2022-12-18T03:22:25;101823.98;;;-0.25;75.05
55801;BME280;41730;51.960;20.158;2022-12-18T03:24:59;101825.80;;;-0.18;74.79
55801;BME280;41730;51.960;20.158;2022-12-18T03:27:34;101823.54;;;-0.31;75.24
55801;BME280;41730;51.960;20.158;2022-12-18T03:30:12;101826.33;;;-0.48;75.70
55801;BME280;41730;51.960;20.158;2022-12-18T03:32:46;101830.65;;;-0.51;75.81
55801;BME280;41730;51.960;20.158;2022-12-18T03:35:23;101836.39;;;-0.54;75.96
55801;BME280;41730;51.960;20.158;2022-12-18T03:37:57;101835.84;;;-0.36;75.47
55801;BME280;41730;51.960;20.158;2022-12-18T03:40:35;101835.33;;;-0.36;75.24
55801;BME280;41730;51.960;20.158;2022-12-18T03:43:14;101838.14;;;-0.27;75.04
55801;BME280;41730;51.960;20.158;2022-12-18T03:45:50;101844.22;;;-0.15;74.66
55801;BME280;41730;51.960;20.158;2022-12-18T03:48:30;101847.36;;;-0.19;74.79
55801;BME280;41730;51.960;20.158;2022-12-18T03:51:07;101856.63;;;-0.30;75.05
55801;BME280;41730;51.960;20.158;2022-12-18T03:53:47;101857.14;;;-0.30;74.94
55801;BME280;41730;51.960;20.158;2022-12-18T03:56:22;101861.29;;;-0.30;75.11
55801;BME280;41730;51.960;20.158;2022-12-18T03:58:55;101865.02;;;-0.26;75.04
55801;BME280;41730;51.960;20.158;2022-12-18T04:01:32;101865.53;;;-0.41;75.33
55801;BME280;41730;51.960;20.158;2022-12-18T04:04:06;101875.80;;;-0.34;75.26
55801;BME280;41730;51.960;20.158;2022-12-18T04:06:40;101886.20;;;-0.24;74.96
55801;BME280;41730;51.960;20.158;2022-12-18T04:09:12;101889.05;;;-0.33;75.08
55801;BME280;41730;51.960;20.158;2022-12-18T04:11:44;101891.73;;;-0.41;75.38
55801;BME280;41730;51.960;20.158;2022-12-18T04:14:16;101896.96;;;-0.48;75.44
55801;BME280;41730;51.960;20.158;2022-12-18T04:16:47;101902.91;;;-0.39;75.29
55801;BME280;41730;51.960;20.158;2022-12-18T04:19:19;101910.45;;;-0.35;75.17
55801;BME280;41730;51.960;20.158;2022-12-18T04:21:50;101907.89;;;-0.38;75.21
55801;BME280;41730;51.960;20.158;2022-12-18T04:24:22;101910.84;;;-0.39;75.29
55801;BME280;41730;51.960;20.158;2022-12-18T04:26:54;101910.47;;;-0.37;75.34
55801;BME280;41730;51.960;20.158;2022-12-18T04:29:28;101917.14;;;-0.31;75.08
55801;BME280;41730;51.960;20.158;2022-12-18T04:32:03;101913.33;;;-0.30;74.95
55801;BME280;41730;51.960;20.158;2022-12-18T04:34:37;101914.30;;;-0.25;74.91
55801;BME280;41730;51.960;20.158;2022-12-18T04:37:09;101921.02;;;-0.23;74.93
55801;BME280;41730;51.960;20.158;2022-12-18T04:39:41;101926.31;;;-0.19;74.77
55801;BME280;41730;51.960;20.158;2022-12-18T04:42:12;101935.17;;;-0.26;74.73
55801;BME280;41730;51.960;20.158;2022-12-18T04:44:44;101939.60;;;-0.20;74.86
55801;BME280;41730;51.960;20.158;2022-12-18T04:47:15;101942.11;;;-0.13;74.65
55801;BME280;41730;51.960;20.158;2022-12-18T04:49:49;101940.73;;;-0.14;74.49
55801;BME280;41730;51.960;20.158;2022-12-18T04:52:21;101943.52;;;-0.02;74.28
55801;BME280;41730;51.960;20.158;2022-12-18T04:54:53;101949.96;;;-0.06;74.16
55801;BME280;41730;51.960;20.158;2022-12-18T04:57:24;101947.54;;;-0.21;74.57
55801;BME280;41730;51.960;20.158;2022-12-18T04:59:56;101942.77;;;-0.27;74.91
55801;BME280;41730;51.960;20.158;2022-12-18T05:02:28;101944.75;;;-0.16;74.75
55801;BME280;41730;51.960;20.158;2022-12-18T05:04:59;101944.95;;;-0.03;74.54
55801;BME280;41730;51.960;20.158;2022-12-18T05:07:31;101946.19;;;-0.07;74.34
55801;BME280;41730;51.960;20.158;2022-12-18T05:10:03;101945.91;;;-0.13;74.47
55801;BME280;41730;51.960;20.158;2022-12-18T05:12:35;101951.65;;;-0.19;74.83
55801;BME280;41730;51.960;20.158;2022-12-18T05:15:31;101954.55;;;-0.16;74.95
55801;BME280;41730;51.960;20.158;2022-12-18T05:18:04;101956.98;;;-0.18;74.86
55801;BME280;41730;51.960;20.158;2022-12-18T05:20:35;101956.22;;;-0.10;74.38
55801;BME280;41730;51.960;20.158;2022-12-18T05:23:07;101954.51;;;-0.11;74.44
55801;BME280;41730;51.960;20.158;2022-12-18T05:25:39;101962.19;;;-0.22;74.94
55801;BME280;41730;51.960;20.158;2022-12-18T05:28:10;101965.63;;;-0.20;74.98
55801;BME280;41730;51.960;20.158;2022-12-18T05:30:42;101969.23;;;-0.19;74.86
55801;BME280;41730;51.960;20.158;2022-12-18T05:33:13;101972.74;;;-0.26;75.19
55801;BME280;41730;51.960;20.158;2022-12-18T05:35:49;101971.56;;;-0.29;75.13
55801;BME280;41730;51.960;20.158;2022-12-18T05:38:21;101971.11;;;-0.34;75.38
55801;BME280;41730;51.960;20.158;2022-12-18T05:40:53;101979.34;;;-0.32;75.44
55801;BME280;41730;51.960;20.158;2022-12-18T05:43:26;101979.08;;;-0.39;75.67
55801;BME280;41730;51.960;20.158;2022-12-18T05:46:02;101980.11;;;-0.39;75.66
55801;BME280;41730;51.960;20.158;2022-12-18T05:48:34;101983.23;;;-0.42;75.68
55801;BME280;41730;51.960;20.158;2022-12-18T05:51:08;101980.10;;;-0.37;75.53
55801;BME280;41730;51.960;20.158;2022-12-18T05:53:40;101978.00;;;-0.34;75.50
55801;BME280;41730;51.960;20.158;2022-12-18T05:56:14;101984.48;;;-0.28;75.20
55801;BME280;41730;51.960;20.158;2022-12-18T05:58:46;101987.82;;;-0.33;75.38
55801;BME280;41730;51.960;20.158;2022-12-18T06:01:20;101998.45;;;-0.27;75.31
55801;BME280;41730;51.960;20.158;2022-12-18T06:03:53;101993.95;;;-0.26;75.08
55801;BME280;41730;51.960;20.158;2022-12-18T06:06:26;101999.73;;;-0.17;74.83
55801;BME280;41730;51.960;20.158;2022-12-18T06:08:58;102004.40;;;-0.19;74.63
55801;BME280;41730;51.960;20.158;2022-12-18T06:11:31;102010.26;;;-0.38;75.07
55801;BME280;41730;51.960;20.158;2022-12-18T06:14:03;102013.71;;;-0.39;75.08
55801;BME280;41730;51.960;20.158;2022-12-18T06:16:35;102020.74;;;-0.34;75.16
55801;BME280;41730;51.960;20.158;2022-12-18T06:19:07;102020.52;;;-0.48;75.07
55801;BME280;41730;51.960;20.158;2022-12-18T06:21:38;102027.60;;;-0.51;75.14
55801;BME280;41730;51.960;20.158;2022-12-18T06:24:10;102032.13;;;-0.59;75.29
55801;BME280;41730;51.960;20.158;2022-12-18T06:26:41;102035.26;;;-0.61;75.49
55801;BME280;41730;51.960;20.158;2022-12-18T06:29:13;102041.45;;;-0.62;75.33
55801;BME280;41730;51.960;20.158;2022-12-18T06:31:44;102042.20;;;-0.70;75.76
55801;BME280;41730;51.960;20.158;2022-12-18T06:34:16;102044.40;;;-0.66;75.65
55801;BME280;41730;51.960;20.158;2022-12-18T06:36:47;102052.86;;;-0.66;75.63
55801;BME280;41730;51.960;20.158;2022-12-18T06:39:19;102057.80;;;-0.57;75.41
55801;BME280;41730;51.960;20.158;2022-12-18T06:41:51;102064.48;;;-0.52;75.27
55801;BME280;41730;51.960;20.158;2022-12-18T06:44:22;102065.84;;;-0.50;75.21
55801;BME280;41730;51.960;20.158;2022-12-18T06:46:54;102074.51;;;-0.56;75.31
55801;BME280;41730;51.960;20.158;2022-12-18T06:49:25;102075.86;;;-0.54;75.51
55801;BME280;41730;51.960;20.158;2022-12-18T06:51:59;102076.83;;;-0.45;75.33
55801;BME280;41730;51.960;20.158;2022-12-18T06:54:31;102078.45;;;-0.30;74.80
55801;BME280;41730;51.960;20.158;2022-12-18T06:57:02;102079.41;;;-0.20;74.60
55801;BME280;41730;51.960;20.158;2022-12-18T06:59:34;102081.48;;;-0.20;74.59
55801;BME280;41730;51.960;20.158;2022-12-18T07:02:05;102081.99;;;-0.21;74.63
55801;BME280;41730;51.960;20.158;2022-12-18T07:04:37;102089.56;;;-0.18;74.68
55801;BME280;41730;51.960;20.158;2022-12-18T07:07:09;102097.52;;;-0.24;74.67
55801;BME280;41730;51.960;20.158;2022-12-18T07:09:42;102108.27;;;-0.33;75.09
55801;BME280;41730;51.960;20.158;2022-12-18T07:12:15;102109.46;;;-0.29;75.15
55801;BME280;41730;51.960;20.158;2022-12-18T07:14:47;102114.48;;;-0.31;75.09
55801;BME280;41730;51.960;20.158;2022-12-18T07:17:18;102124.83;;;-0.32;75.45
55801;BME280;41730;51.960;20.158;2022-12-18T07:19:51;102124.71;;;-0.17;74.82
55801;BME280;41730;51.960;20.158;2022-12-18T07:22:23;102133.95;;;-0.08;74.72
55801;BME280;41730;51.960;20.158;2022-12-18T07:24:56;102138.25;;;-0.04;74.70
55801;BME280;41730;51.960;20.158;2022-12-18T07:27:27;102140.96;;;0.01;74.27
55801;BME280;41730;51.960;20.158;2022-12-18T07:29:59;102140.38;;;0.09;74.30
55801;BME280;41730;51.960;20.158;2022-12-18T07:32:31;102140.86;;;0.13;74.19
55801;BME280;41730;51.960;20.158;2022-12-18T07:35:03;102144.25;;;0.21;73.97
55801;BME280;41730;51.960;20.158;2022-12-18T07:37:35;102144.38;;;0.27;73.55
55801;BME280;41730;51.960;20.158;2022-12-18T07:40:09;102146.13;;;0.23;73.90
55801;BME280;41730;51.960;20.158;2022-12-18T07:42:40;102141.16;;;0.18;74.07
55801;BME280;41730;51.960;20.158;2022-12-18T07:45:12;102143.73;;;0.21;74.05
55801;BME280;41730;51.960;20.158;2022-12-18T07:47:44;102148.29;;;0.11;74.27
55801;BME280;41730;51.960;20.158;2022-12-18T07:50:16;102154.59;;;-0.01;75.13
55801;BME280;41730;51.960;20.158;2022-12-18T07:52:48;102158.21;;;0.01;75.09
55801;BME280;41730;51.960;20.158;2022-12-18T07:55:19;102165.45;;;0.02;74.76
55801;BME280;41730;51.960;20.158;2022-12-18T07:57:51;102171.73;;;-0.08;75.12
55801;BME280;41730;51.960;20.158;2022-12-18T08:00:29;102169.83;;;-0.09;75.37
55801;BME280;41730;51.960;20.158;2022-12-18T08:03:01;102173.14;;;-0.12;75.40
55801;BME280;41730;51.960;20.158;2022-12-18T08:05:33;102177.07;;;-0.10;75.44
55801;BME280;41730;51.960;20.158;2022-12-18T08:08:04;102177.17;;;0.01;75.26
55801;BME280;41730;51.960;20.158;2022-12-18T08:10:36;102180.70;;;0.13;74.95
55801;BME280;41730;51.960;20.158;2022-12-18T08:13:08;102187.41;;;0.17;74.68
55801;BME280;41730;51.960;20.158;2022-12-18T08:15:40;102189.44;;;0.21;74.73
55801;BME280;41730;51.960;20.158;2022-12-18T08:18:11;102193.23;;;0.22;74.61
55801;BME280;41730;51.960;20.158;2022-12-18T08:20:43;102198.17;;;0.28;74.52
55801;BME280;41730;51.960;20.158;2022-12-18T08:23:15;102197.02;;;0.21;74.85
55801;BME280;41730;51.960;20.158;2022-12-18T08:25:46;102198.80;;;0.15;74.79
55801;BME280;41730;51.960;20.158;2022-12-18T08:28:18;102199.09;;;0.23;74.51
55801;BME280;41730;51.960;20.158;2022-12-18T08:30:54;102200.05;;;0.30;74.45
55801;BME280;41730;51.960;20.158;2022-12-18T08:33:27;102200.59;;;0.31;74.53
55801;BME280;41730;51.960;20.158;2022-12-18T08:35:59;102209.55;;;0.34;74.13
55801;BME280;41730;51.960;20.158;2022-12-18T08:38:32;102215.09;;;0.27;74.52
55801;BME280;41730;51.960;20.158;2022-12-18T08:41:06;102213.27;;;0.16;75.10
55801;BME280;41730;51.960;20.158;2022-12-18T08:43:37;102223.42;;;0.22;74.75
55801;BME280;41730;51.960;20.158;2022-12-18T08:46:27;102225.11;;;0.27;74.86
55801;BME280;41730;51.960;20.158;2022-12-18T08:49:02;102229.45;;;0.23;74.43
55801;BME280;41730;51.960;20.158;2022-12-18T08:51:35;102219.60;;;0.26;74.76
55801;BME280;41730;51.960;20.158;2022-12-18T08:54:09;102223.39;;;0.26;74.86
55801;BME280;41730;51.960;20.158;2022-12-18T08:56:42;102230.48;;;0.24;75.06
55801;BME280;41730;51.960;20.158;2022-12-18T08:59:14;102233.61;;;0.20;74.98
55801;BME280;41730;51.960;20.158;2022-12-18T09:01:49;102233.61;;;0.20;75.33
55801;BME280;41730;51.960;20.158;2022-12-18T09:04:21;102237.11;;;0.35;74.70
55801;BME280;41730;51.960;20.158;2022-12-18T09:06:53;102236.06;;;0.39;74.52
55801;BME280;41730;51.960;20.158;2022-12-18T09:09:24;102238.34;;;0.34;74.62
55801;BME280;41730;51.960;20.158;2022-12-18T09:11:56;102234.36;;;0.35;74.79
55801;BME280;41730;51.960;20.158;2022-12-18T09:14:28;102238.46;;;0.40;74.70
55801;BME280;41730;51.960;20.158;2022-12-18T09:17:00;102239.98;;;0.46;74.83
55801;BME280;41730;51.960;20.158;2022-12-18T09:19:32;102244.38;;;0.55;74.53
55801;BME280;41730;51.960;20.158;2022-12-18T09:22:03;102244.52;;;0.58;74.23
55801;BME280;41730;51.960;20.158;2022-12-18T09:24:35;102245.92;;;0.55;74.67
55801;BME280;41730;51.960;20.158;2022-12-18T09:27:06;102253.90;;;0.51;74.16
55801;BME280;41730;51.960;20.158;2022-12-18T09:29:38;102255.83;;;0.49;74.69
55801;BME280;41730;51.960;20.158;2022-12-18T09:32:10;102257.45;;;0.39;74.83
55801;BME280;41730;51.960;20.158;2022-12-18T09:34:50;102261.08;;;0.39;74.91
55801;BME280;41730;51.960;20.158;2022-12-18T09:37:22;102267.35;;;0.30;75.07
55801;BME280;41730;51.960;20.158;2022-12-18T09:39:53;102268.10;;;0.23;75.38
55801;BME280;41730;51.960;20.158;2022-12-18T09:42:25;102268.44;;;0.25;75.54
55801;BME280;41730;51.960;20.158;2022-12-18T09:44:57;102269.10;;;0.27;75.60
55801;BME280;41730;51.960;20.158;2022-12-18T09:47:32;102272.81;;;0.38;75.63
55801;BME280;41730;51.960;20.158;2022-12-18T09:50:20;102271.09;;;0.38;75.14
55801;BME280;41730;51.960;20.158;2022-12-18T09:52:55;102277.02;;;0.28;75.33
55801;BME280;41730;51.960;20.158;2022-12-18T09:55:30;102272.20;;;0.30;75.56
55801;BME280;41730;51.960;20.158;2022-12-18T09:58:12;102265.84;;;0.26;75.56
55801;BME280;41730;51.960;20.158;2022-12-18T10:00:46;102263.69;;;0.37;75.54
55801;BME280;41730;51.960;20.158;2022-12-18T10:03:18;102269.17;;;0.40;75.33
55801;BME280;41730;51.960;20.158;2022-12-18T10:05:56;102266.42;;;0.40;74.80
55801;BME280;41730;51.960;20.158;2022-12-18T10:08:39;102272.96;;;0.42;75.00
55801;BME280;41730;51.960;20.158;2022-12-18T10:11:27;102279.14;;;0.47;74.90
55801;BME280;41730;51.960;20.158;2022-12-18T10:14:05;102275.73;;;0.40;74.98
55801;BME280;41730;51.960;20.158;2022-12-18T10:16:46;102273.85;;;0.40;74.96
55801;BME280;41730;51.960;20.158;2022-12-18T10:19:49;102267.32;;;0.36;74.77
55801;BME280;41730;51.960;20.158;2022-12-18T10:22:31;102265.83;;;0.50;74.44
55801;BME280;41730;51.960;20.158;2022-12-18T10:25:19;102272.85;;;0.55;74.30
55801;BME280;41730;51.960;20.158;2022-12-18T10:27:56;102272.90;;;0.50;74.36
55801;BME280;41730;51.960;20.158;2022-12-18T10:30:29;102271.61;;;0.59;74.45
55801;BME280;41730;51.960;20.158;2022-12-18T10:33:03;102272.27;;;0.64;73.87
55801;BME280;41730;51.960;20.158;2022-12-18T10:35:36;102274.20;;;0.60;73.77
55801;BME280;41730;51.960;20.158;2022-12-18T10:38:23;102274.81;;;0.48;74.39
55801;BME280;41730;51.960;20.158;2022-12-18T10:40:57;102269.07;;;0.53;74.07
55801;BME280;41730;51.960;20.158;2022-12-18T10:43:31;102265.90;;;0.61;73.79
55801;BME280;41730;51.960;20.158;2022-12-18T10:46:13;102263.83;;;0.60;73.81
55801;BME280;41730;51.960;20.158;2022-12-18T10:48:56;102267.45;;;0.61;73.57
55801;BME280;41730;51.960;20.158;2022-12-18T10:51:31;102268.48;;;0.42;73.94
55801;BME280;41730;51.960;20.158;2022-12-18T10:54:06;102265.86;;;0.45;74.08
55801;BME280;41730;51.960;20.158;2022-12-18T10:56:38;102265.17;;;0.44;74.22
55801;BME280;41730;51.960;20.158;2022-12-18T10:59:13;102270.75;;;0.37;74.60
55801;BME280;41730;51.960;20.158;2022-12-18T11:01:52;102273.38;;;0.33;74.42
55801;BME280;41730;51.960;20.158;2022-12-18T11:04:26;102275.27;;;0.33;74.42
55801;BME280;41730;51.960;20.158;2022-12-18T11:07:00;102271.87;;;0.26;74.80
55801;BME280;41730;51.960;20.158;2022-12-18T11:09:34;102275.92;;;0.38;74.68
55801;BME280;41730;51.960;20.158;2022-12-18T11:12:14;102281.89;;;0.48;74.14
55801;BME280;41730;51.960;20.158;2022-12-18T11:14:49;102284.16;;;0.44;74.13
55801;BME280;41730;51.960;20.158;2022-12-18T11:17:24;102281.42;;;0.41;74.42
55801;BME280;41730;51.960;20.158;2022-12-18T11:20:00;102276.21;;;0.45;74.45
55801;BME280;41730;51.960;20.158;2022-12-18T11:22:34;102274.86;;;0.41;74.63
55801;BME280;41730;51.960;20.158;2022-12-18T11:25:19;102277.42;;;0.45;74.49
55801;BME280;41730;51.960;20.158;2022-12-18T11:28:03;102286.89;;;0.49;74.68
55801;BME280;41730;51.960;20.158;2022-12-18T11:30:37;102285.95;;;0.58;74.11
55801;BME280;41730;51.960;20.158;2022-12-18T11:33:13;102284.48;;;0.69;74.08
55801;BME280;41730;51.960;20.158;2022-12-18T11:35:51;102286.21;;;0.69;73.95
55801;BME280;41730;51.960;20.158;2022-12-18T11:38:26;102288.65;;;0.68;74.07
55801;BME280;41730;51.960;20.158;2022-12-18T11:41:02;102293.16;;;0.63;74.17
55801;BME280;41730;51.960;20.158;2022-12-18T11:43:38;102296.80;;;0.38;74.46
55801;BME280;41730;51.960;20.158;2022-12-18T11:46:13;102294.34;;;0.21;75.43
55801;BME280;41730;51.960;20.158;2022-12-18T11:48:52;102293.45;;;0.23;75.66
55801;BME280;41730;51.960;20.158;2022-12-18T11:51:32;102295.02;;;0.21;75.26
55801;BME280;41730;51.960;20.158;2022-12-18T11:54:11;102286.91;;;0.20;75.25
55801;BME280;41730;51.960;20.158;2022-12-18T11:56:48;102275.04;;;0.17;75.53
55801;BME280;41730;51.960;20.158;2022-12-18T11:59:27;102277.01;;;0.05;75.70
55801;BME280;41730;51.960;20.158;2022-12-18T12:02:11;102279.97;;;-0.02;75.78
55801;BME280;41730;51.960;20.158;2022-12-18T12:04:59;102281.17;;;0.00;75.99
55801;BME280;41730;51.960;20.158;2022-12-18T12:07:41;102282.53;;;0.04;75.73
55801;BME280;41730;51.960;20.158;2022-12-18T12:10:30;102287.31;;;0.13;75.51
55801;BME280;41730;51.960;20.158;2022-12-18T12:13:20;102294.61;;;0.02;75.85
55801;BME280;41730;51.960;20.158;2022-12-18T12:16:03;102307.42;;;-0.06;75.84
55801;BME280;41730;51.960;20.158;2022-12-18T12:18:49;102317.21;;;0.00;75.90
55801;BME280;41730;51.960;20.158;2022-12-18T12:21:32;102321.15;;;0.06;75.68
55801;BME280;41730;51.960;20.158;2022-12-18T12:24:15;102321.45;;;0.12;75.36
55801;BME280;41730;51.960;20.158;2022-12-18T12:27:01;102322.80;;;0.19;75.19
55801;BME280;41730;51.960;20.158;2022-12-18T12:29:45;102319.63;;;0.31;74.95
55801;BME280;41730;51.960;20.158;2022-12-18T12:32:30;102319.44;;;0.34;74.91
55801;BME280;41730;51.960;20.158;2022-12-18T12:35:14;102324.27;;;0.34;74.66
55801;BME280;41730;51.960;20.158;2022-12-18T12:37:55;102333.76;;;0.35;74.47
55801;BME280;41730;51.960;20.158;2022-12-18T12:40:33;102340.98;;;0.38;74.16
55801;BME280;41730;51.960;20.158;2022-12-18T12:43:31;102337.88;;;0.39;74.28
55801;BME280;41730;51.960;20.158;2022-12-18T12:46:07;102335.90;;;0.21;74.85
55801;BME280;41730;51.960;20.158;2022-12-18T12:48:43;102335.23;;;0.18;74.76
55801;BME280;41730;51.960;20.158;2022-12-18T12:51:20;102342.29;;;0.20;75.13
55801;BME280;41730;51.960;20.158;2022-12-18T12:53:54;102347.81;;;0.20;74.85
55801;BME280;41730;51.960;20.158;2022-12-18T12:56:43;102354.09;;;0.04;75.34
55801;BME280;41730;51.960;20.158;2022-12-18T12:59:22;102362.61;;;-0.11;75.81
55801;BME280;41730;51.960;20.158;2022-12-18T13:02:03;102364.31;;;-0.05;75.88
55801;BME280;41730;51.960;20.158;2022-12-18T13:04:39;102361.70;;;0.03;75.64
55801;BME280;41730;51.960;20.158;2022-12-18T13:07:19;102359.28;;;0.05;75.51
55801;BME280;41730;51.960;20.158;2022-12-18T13:10:22;102362.23;;;-0.00;75.67
55801;BME280;41730;51.960;20.158;2022-12-18T13:12:59;102359.93;;;0.11;75.14
55801;BME280;41730;51.960;20.158;2022-12-18T13:15:49;102366.13;;;0.15;74.90
55801;BME280;41730;51.960;20.158;2022-12-18T13:18:36;102369.77;;;0.13;74.92
55801;BME280;41730;51.960;20.158;2022-12-18T13:21:17;102375.27;;;0.15;75.18
55801;BME280;41730;51.960;20.158;2022-12-18T13:23:52;102375.61;;;0.15;75.10